createdAt,value
2022-11-25T00:00:25.734Z,22.17
2022-11-25T00:05:32.648Z,18.40
2022-11-25T00:10:37.764Z,18.50
2022-11-25T00:15:50.104Z,17.70
2022-11-25T00:20:55.003Z,18.43
2022-11-25T00:25:59.970Z,16.13
2022-11-25T00:31:13.018Z,16.13
2022-11-25T00:36:20.379Z,19.97
2022-11-25T00:41:37.854Z,18.33
2022-11-25T00:46:45.762Z,17.00
2022-11-25T00:51:50.867Z,14.37
2022-11-25T00:56:55.685Z,15.13
2022-11-25T01:02:03.584Z,17.53
2022-11-25T01:07:09.233Z,14.10
2022-11-25T01:12:14.448Z,13.67
2022-11-25T01:17:22.147Z,22.37
2022-11-25T01:22:27.131Z,18.40
2022-11-25T01:27:32.384Z,13.77
2022-11-25T01:32:41.141Z,16.30
2022-11-25T01:37:46.114Z,18.17
2022-11-25T01:42:52.153Z,25.83
2022-11-25T01:48:05.854Z,22.10
2022-11-25T01:53:15.068Z,22.30
2022-11-25T01:58:23.793Z,20.93
2022-11-25T02:03:35.996Z,20.47
2022-11-25T02:08:41.782Z,22.97
2022-11-25T02:13:48.514Z,19.57
2022-11-25T02:18:56.729Z,16.93
2022-11-25T02:24:11.948Z,16.13
2022-11-25T02:29:20.055Z,20.73
2022-11-25T02:34:27.003Z,15.50
2022-11-25T02:39:32.059Z,14.10
2022-11-25T02:44:39.851Z,14.93
2022-11-25T02:49:46.635Z,12.33
2022-11-25T02:54:52.055Z,10.77
2022-11-25T02:59:59.696Z,10.37
2022-11-25T03:05:04.826Z,19.43
2022-11-25T03:10:10.619Z,15.83
2022-11-25T03:15:18.409Z,14.13
2022-11-25T03:20:23.508Z,15.87
2022-11-25T03:25:28.508Z,13.07
2022-11-25T03:30:36.640Z,13.30
2022-11-25T03:35:42.421Z,14.03
2022-11-25T03:40:47.827Z,15.13
2022-11-25T03:45:55.686Z,15.47
2022-11-25T03:51:00.891Z,10.97
2022-11-25T03:56:07.313Z,11.33
2022-11-25T04:01:15.897Z,9.87
2022-11-25T04:06:24.059Z,13.20
2022-11-25T04:11:43.891Z,11.93
2022-11-25T04:16:53.446Z,13.10
2022-11-25T04:21:59.902Z,13.00
2022-11-25T04:27:06.378Z,9.70
2022-11-25T04:32:16.449Z,15.80
2022-11-25T04:37:22.397Z,15.90
2022-11-25T04:42:39.703Z,11.07
2022-11-25T04:47:54.892Z,12.40
2022-11-25T04:53:00.688Z,11.03
2022-11-25T04:58:06.383Z,11.03
2022-11-25T05:03:15.929Z,13.37
2022-11-25T05:08:21.174Z,12.50
2022-11-25T05:13:26.917Z,13.37
2022-11-25T05:18:34.634Z,13.33
2022-11-25T05:23:39.713Z,12.47
2022-11-25T05:28:45.869Z,15.60
2022-11-25T05:33:53.539Z,11.47
2022-11-25T05:39:00.208Z,15.07
2022-11-25T05:44:34.841Z,12.43
2022-11-25T05:49:43.541Z,12.33
2022-11-25T05:54:51.274Z,14.47
2022-11-25T06:00:00.520Z,15.83
2022-11-25T06:05:25.853Z,15.50
2022-11-25T06:10:30.949Z,15.67
2022-11-25T06:15:36.220Z,13.53
2022-11-25T06:20:45.563Z,19.13
2022-11-25T06:25:51.145Z,14.03
2022-11-25T06:30:59.099Z,16.97
2022-11-25T06:36:19.311Z,15.30
2022-11-25T06:41:24.815Z,15.00
2022-11-25T06:46:30.023Z,18.63
2022-11-25T06:51:37.764Z,18.87
2022-11-25T06:56:42.987Z,18.77
2022-11-25T07:01:48.086Z,17.23
2022-11-25T07:06:55.699Z,25.47
2022-11-25T07:12:00.645Z,16.80
2022-11-25T07:17:11.568Z,16.70
2022-11-25T07:22:19.705Z,16.50
2022-11-25T07:27:24.762Z,33.03
2022-11-25T07:32:29.719Z,17.50
2022-11-25T07:37:37.295Z,16.00
2022-11-25T07:42:42.455Z,21.40
2022-11-25T07:47:48.006Z,18.07
2022-11-25T07:52:55.674Z,14.87
2022-11-25T07:58:00.658Z,15.43
2022-11-25T08:03:09.206Z,23.40
2022-11-25T08:08:17.441Z,50.10
2022-11-25T08:13:22.503Z,67.27
2022-11-25T08:18:27.618Z,62.20
2022-11-25T08:23:35.645Z,52.90
2022-11-25T08:28:41.671Z,38.70
2022-11-25T08:33:48.306Z,38.87
2022-11-25T08:38:58.628Z,16.20
2022-11-25T08:44:10.557Z,11.87
2022-11-25T08:49:18.573Z,11.10
2022-11-25T08:54:27.774Z,9.90
2022-11-25T08:59:32.759Z,10.37
2022-11-25T09:04:37.711Z,11.77
2022-11-25T09:09:45.288Z,11.33
2022-11-25T09:14:50.274Z,16.57
2022-11-25T09:19:55.688Z,12.40
2022-11-25T09:25:06.588Z,14.13
2022-11-25T09:30:12.827Z,12.97
2022-11-25T09:35:17.939Z,11.87
2022-11-25T09:40:35.944Z,8.20
2022-11-25T09:46:02.903Z,9.20
2022-11-25T09:51:20.232Z,7.00
2022-11-25T09:56:38.066Z,6.23
2022-11-25T10:01:51.833Z,11.57
2022-11-25T10:07:02.123Z,7.20
2022-11-25T10:12:20.922Z,6.37
2022-11-25T10:17:37.674Z,7.20
2022-11-25T10:22:46.802Z,7.57
2022-11-25T10:27:59.886Z,7.13
2022-11-25T10:33:16.103Z,5.43
2022-11-25T10:38:29.199Z,6.70
2022-11-25T10:43:39.875Z,6.80
2022-11-25T10:48:57.768Z,9.90
2022-11-25T10:54:18.735Z,8.53
2022-11-25T10:59:32.713Z,5.43
2022-11-25T11:04:38.144Z,5.97
2022-11-25T11:09:43.862Z,5.87
2022-11-25T11:14:52.630Z,11.83
2022-11-25T11:20:21.848Z,6.17
2022-11-25T11:25:33.441Z,8.83
2022-11-25T11:30:55.827Z,5.97
2022-11-25T11:36:07.807Z,6.73
2022-11-25T11:41:26.540Z,8.97
2022-11-25T11:46:46.312Z,8.23
2022-11-25T11:52:00.519Z,9.33
2022-11-25T11:57:17.864Z,5.33
2022-11-25T12:02:31.041Z,7.00
2022-11-25T12:07:44.602Z,8.23
2022-11-25T12:12:55.734Z,6.57
2022-11-25T12:18:13.370Z,8.10
2022-11-25T12:23:24.418Z,5.93
2022-11-25T12:28:36.831Z,7.67
2022-11-25T12:33:53.013Z,8.20
2022-11-25T12:38:59.547Z,6.30
2022-11-25T12:44:10.639Z,9.30
2022-11-25T12:49:23.271Z,8.70
2022-11-25T12:54:45.462Z,10.07
2022-11-25T13:00:39.812Z,6.37
2022-11-25T13:05:56.652Z,9.60
2022-11-25T13:11:30.750Z,14.53
2022-11-25T13:16:36.932Z,9.03
2022-11-25T13:22:04.521Z,9.97
2022-11-25T13:27:29.707Z,12.17
2022-11-25T13:32:37.918Z,12.70
2022-11-25T13:37:46.155Z,10.47
2022-11-25T13:42:52.109Z,9.97
2022-11-25T13:47:58.257Z,11.13
2022-11-25T13:53:08.694Z,12.50
2022-11-25T13:58:22.738Z,14.97
2022-11-25T14:03:55.394Z,15.13
2022-11-25T14:09:09.214Z,17.30
2022-11-25T14:14:31.772Z,20.53
2022-11-25T14:20:04.401Z,16.70
2022-11-25T14:25:22.340Z,18.47
2022-11-25T14:30:31.097Z,16.77
2022-11-25T14:35:45.336Z,22.37
2022-11-25T14:41:01.906Z,19.33
2022-11-25T14:46:16.383Z,19.37
2022-11-25T14:51:22.355Z,24.93
2022-11-25T14:56:33.901Z,24.43
2022-11-25T15:01:40.345Z,21.17
2022-11-25T15:06:51.266Z,21.43
2022-11-25T15:12:04.169Z,22.13
2022-11-25T15:17:11.912Z,26.50
2022-11-25T15:22:23.505Z,21.60
2022-11-25T15:27:32.092Z,28.10
2022-11-25T15:32:38.925Z,25.67
2022-11-25T15:37:44.952Z,26.33
2022-11-25T15:42:52.650Z,23.97
2022-11-25T15:48:00.394Z,30.13
2022-11-25T15:53:05.636Z,25.33
2022-11-25T15:58:19.572Z,24.73
2022-11-25T16:03:25.232Z,28.70
2022-11-25T16:08:36.553Z,32.77
2022-11-25T16:13:44.967Z,27.50
2022-11-25T16:19:13.419Z,32.17
2022-11-25T16:24:46.162Z,30.20
2022-11-25T16:29:56.353Z,31.70
2022-11-25T16:35:16.606Z,30.73
2022-11-25T16:40:22.474Z,30.90
2022-11-25T16:45:31.268Z,29.90
2022-11-25T16:50:36.383Z,32.43
2022-11-25T16:55:46.235Z,32.50
2022-11-25T17:00:58.934Z,31.40
2022-11-25T17:06:06.489Z,38.60
2022-11-25T17:11:16.601Z,33.23
2022-11-25T17:16:26.620Z,35.40
2022-11-25T17:21:31.844Z,27.87
2022-11-25T17:26:40.596Z,36.10
2022-11-25T17:31:53.625Z,37.77
2022-11-25T17:37:01.829Z,40.50
2022-11-25T17:42:08.387Z,37.33
2022-11-25T17:47:18.663Z,38.70
2022-11-25T17:52:23.871Z,42.13
2022-11-25T17:57:31.219Z,34.77
2022-11-25T18:02:39.284Z,36.43
2022-11-25T18:07:46.449Z,33.50
2022-11-25T18:12:54.908Z,36.03
2022-11-25T18:18:06.543Z,30.33
2022-11-25T18:23:12.450Z,31.57
2022-11-25T18:28:20.590Z,37.67
2022-11-25T18:33:29.494Z,35.20
2022-11-25T18:38:34.380Z,38.87
2022-11-25T18:43:39.382Z,41.93
2022-11-25T18:48:47.217Z,39.10
2022-11-25T18:53:52.227Z,43.43
2022-11-25T18:58:59.886Z,40.00
2022-11-25T19:04:08.967Z,41.80
2022-11-25T19:09:17.884Z,33.53
2022-11-25T19:14:33.158Z,32.70
2022-11-25T19:19:43.035Z,30.57
2022-11-25T19:24:50.027Z,23.43
2022-11-25T19:29:58.042Z,21.17
2022-11-25T19:35:09.792Z,22.07
2022-11-25T19:40:21.776Z,23.53
2022-11-25T19:45:30.800Z,21.30
2022-11-25T19:50:41.977Z,17.23
2022-11-25T19:55:48.026Z,18.40
2022-11-25T20:00:53.557Z,22.90
2022-11-25T20:06:02.161Z,20.50
2022-11-25T20:11:07.924Z,19.40
2022-11-25T20:16:20.218Z,19.20
2022-11-25T20:21:33.498Z,20.40
2022-11-25T20:26:41.755Z,16.77
2022-11-25T20:31:47.657Z,17.13
2022-11-25T20:36:55.417Z,18.90
2022-11-25T20:42:00.500Z,19.90
2022-11-25T20:47:05.667Z,18.53
2022-11-25T20:52:23.066Z,20.87
2022-11-25T20:57:33.703Z,21.17
2022-11-25T21:02:39.887Z,20.97
2022-11-25T21:07:49.045Z,18.90
2022-11-25T21:12:54.822Z,20.90
2022-11-25T21:18:00.506Z,17.77
2022-11-25T21:23:09.482Z,17.27
2022-11-25T21:28:20.095Z,17.73
2022-11-25T21:33:25.078Z,21.00
2022-11-25T21:38:32.601Z,22.97
2022-11-25T21:43:41.373Z,20.97
2022-11-25T21:48:46.711Z,22.53
2022-11-25T21:53:54.626Z,25.27
2022-11-25T21:59:02.589Z,23.33
2022-11-25T22:04:09.327Z,17.73
2022-11-25T22:09:17.603Z,22.43
2022-11-25T22:14:34.723Z,19.40
2022-11-25T22:19:40.052Z,18.10
2022-11-25T22:24:50.016Z,17.47
2022-11-25T22:29:55.918Z,19.90
2022-11-25T22:35:01.161Z,17.87
2022-11-25T22:40:10.434Z,17.17
2022-11-25T22:45:23.322Z,14.10
2022-11-25T22:50:31.057Z,16.90
2022-11-25T22:55:38.611Z,16.47
2022-11-25T23:00:46.021Z,19.27
2022-11-25T23:05:52.661Z,18.87
2022-11-25T23:11:03.413Z,26.67
2022-11-25T23:16:08.944Z,22.97
2022-11-25T23:21:20.463Z,23.03
2022-11-25T23:26:33.632Z,20.37
2022-11-25T23:31:41.300Z,32.03
2022-11-25T23:36:49.448Z,28.77
2022-11-25T23:42:00.803Z,25.63
2022-11-25T23:47:08.837Z,27.63
2022-11-25T23:52:17.351Z,24.80
2022-11-25T23:57:27.462Z,20.70
